createdAt,value
2018-05-31T00:00:53.562Z,229.60
2018-05-31T00:01:53.621Z,219.00
2018-05-31T00:02:53.658Z,222.40
2018-05-31T00:03:53.716Z,233.20
2018-05-31T00:04:53.761Z,233.70
2018-05-31T00:05:53.912Z,247.80
2018-05-31T00:06:53.842Z,266.00
2018-05-31T00:07:53.927Z,265.60
2018-05-31T00:08:53.927Z,252.90
2018-05-31T00:09:53.979Z,241.00
2018-05-31T00:10:54.124Z,248.40
2018-05-31T00:11:54.070Z,269.80
2018-05-31T00:12:54.108Z,265.60
2018-05-31T00:13:54.150Z,262.40
2018-05-31T00:14:54.205Z,251.70
2018-05-31T00:15:54.238Z,241.00
2018-05-31T00:16:54.283Z,240.60
2018-05-31T00:17:54.426Z,242.50
2018-05-31T00:18:54.355Z,248.10
2018-05-31T00:19:54.417Z,228.60
2018-05-31T00:20:54.459Z,231.90
2018-05-31T00:21:54.486Z,225.30
2018-05-31T00:22:54.649Z,218.90
2018-05-31T00:23:54.582Z,208.20
2018-05-31T00:24:54.647Z,210.10
2018-05-31T00:25:54.673Z,206.30
2018-05-31T00:26:54.719Z,199.30
2018-05-31T00:27:54.759Z,213.90
2018-05-31T00:28:54.812Z,202.40
2018-05-31T00:29:54.847Z,197.50
2018-05-31T00:30:54.883Z,207.70
2018-05-31T00:31:54.941Z,194.50
2018-05-31T00:32:55.077Z,202.80
2018-05-31T00:33:55.029Z,198.10
2018-05-31T00:34:55.082Z,211.50
2018-05-31T00:35:55.118Z,205.60
2018-05-31T00:36:55.171Z,192.20
2018-05-31T00:37:55.203Z,179.00
2018-05-31T00:38:55.237Z,175.10
2018-05-31T00:39:55.391Z,197.20
2018-05-31T00:40:55.325Z,198.20
2018-05-31T00:41:55.369Z,187.70
2018-05-31T00:42:55.428Z,162.50
2018-05-31T00:43:55.454Z,153.50
2018-05-31T00:44:55.505Z,151.00
2018-05-31T00:45:55.561Z,158.90
2018-05-31T00:46:55.587Z,156.00
2018-05-31T00:47:55.647Z,163.10
2018-05-31T00:48:55.695Z,164.30
2018-05-31T00:49:55.831Z,160.20
2018-05-31T00:50:55.781Z,162.60
2018-05-31T00:51:55.819Z,163.50
2018-05-31T00:52:55.866Z,165.90
2018-05-31T00:53:55.906Z,148.70
2018-05-31T00:54:55.933Z,141.50
2018-05-31T00:55:55.991Z,123.10
2018-05-31T00:56:56.051Z,134.80
2018-05-31T00:57:56.074Z,129.00
2018-05-31T00:58:56.123Z,132.00
2018-05-31T00:59:56.259Z,131.60
2018-05-31T01:00:56.196Z,131.10
2018-05-31T01:01:56.259Z,136.30
2018-05-31T01:02:56.285Z,126.10
2018-05-31T01:03:56.339Z,118.30
2018-05-31T01:04:56.376Z,108.10
2018-05-31T01:05:56.432Z,106.60
2018-05-31T01:06:56.577Z,117.50
2018-05-31T01:07:56.518Z,98.90
2018-05-31T01:08:56.559Z,110.40
2018-05-31T01:09:56.592Z,125.80
2018-05-31T01:10:56.631Z,118.90
2018-05-31T01:11:56.680Z,109.10
2018-05-31T01:12:56.831Z,120.40
2018-05-31T01:13:56.793Z,111.70
2018-05-31T01:14:56.809Z,107.20
2018-05-31T01:15:56.869Z,113.90
2018-05-31T01:16:56.901Z,114.00
2018-05-31T01:17:56.953Z,108.00
2018-05-31T01:18:57.114Z,117.30
2018-05-31T01:19:57.048Z,114.70
2018-05-31T01:20:57.086Z,112.30
2018-05-31T01:21:57.122Z,125.10
2018-05-31T01:22:57.161Z,117.60
2018-05-31T01:23:57.302Z,113.70
2018-05-31T01:24:57.242Z,108.70
2018-05-31T01:25:57.288Z,118.90
2018-05-31T01:26:57.334Z,128.90
2018-05-31T01:27:57.399Z,124.30
2018-05-31T01:28:57.425Z,117.80
2018-05-31T01:29:57.460Z,119.60
2018-05-31T01:30:57.624Z,123.70
2018-05-31T01:31:57.562Z,114.10
2018-05-31T01:32:57.602Z,110.50
2018-05-31T01:33:57.673Z,102.20
2018-05-31T01:34:57.698Z,107.30
2018-05-31T01:35:57.733Z,106.30
2018-05-31T01:36:57.863Z,116.70
2018-05-31T01:37:57.809Z,125.50
2018-05-31T01:38:57.875Z,128.20
2018-05-31T01:39:57.908Z,149.60
2018-05-31T01:40:57.940Z,146.30
2018-05-31T01:41:57.983Z,148.00
2018-05-31T01:42:58.150Z,137.10
2018-05-31T01:43:58.092Z,134.60
2018-05-31T01:44:58.120Z,130.10
2018-05-31T01:45:58.173Z,112.50
2018-05-31T01:46:58.212Z,111.70
2018-05-31T01:47:58.265Z,112.10
2018-05-31T01:48:58.408Z,136.90
2018-05-31T01:49:58.330Z,177.80
2018-05-31T01:50:58.385Z,141.90
2018-05-31T01:51:58.416Z,149.60
2018-05-31T01:52:58.465Z,145.40
2018-05-31T01:53:58.521Z,139.80
2018-05-31T01:54:58.646Z,150.70
2018-05-31T01:55:58.603Z,154.10
2018-05-31T01:56:58.646Z,149.50
2018-05-31T01:57:58.679Z,158.70
2018-05-31T01:58:58.738Z,145.80
2018-05-31T01:59:58.892Z,137.80
2018-05-31T02:00:58.816Z,144.10
2018-05-31T02:01:58.879Z,147.40
2018-05-31T02:02:58.910Z,130.90
2018-05-31T02:03:58.952Z,139.90
2018-05-31T02:04:58.998Z,132.60
2018-05-31T02:05:59.028Z,124.00
2018-05-31T02:06:59.068Z,130.50
2018-05-31T02:07:59.190Z,128.20
2018-05-31T02:08:59.169Z,126.80
2018-05-31T02:09:59.220Z,118.90
2018-05-31T02:10:59.339Z,124.50
2018-05-31T02:11:59.296Z,119.40
2018-05-31T02:12:59.333Z,114.60
2018-05-31T02:13:59.393Z,122.70
2018-05-31T02:14:59.430Z,114.00
2018-05-31T02:15:59.461Z,150.80
2018-05-31T02:16:59.598Z,154.20
2018-05-31T02:17:59.558Z,170.10
2018-05-31T02:18:59.600Z,160.50
2018-05-31T02:19:59.634Z,157.40
2018-05-31T02:20:59.686Z,183.70
2018-05-31T02:21:59.844Z,196.50
2018-05-31T02:22:59.771Z,177.80
2018-05-31T02:23:59.829Z,165.20
2018-05-31T02:24:59.861Z,163.10
2018-05-31T02:25:59.905Z,168.60
2018-05-31T02:26:59.938Z,175.90
2018-05-31T02:27:59.994Z,176.70
2018-05-31T02:29:00.033Z,187.80
2018-05-31T02:30:00.092Z,157.10
2018-05-31T02:31:00.104Z,175.80
2018-05-31T02:32:00.279Z,174.00
2018-05-31T02:33:00.201Z,161.10
2018-05-31T02:34:00.239Z,186.70
2018-05-31T02:35:00.275Z,168.70
2018-05-31T02:36:00.334Z,172.70
2018-05-31T02:37:00.378Z,173.30
2018-05-31T02:38:00.511Z,172.60
2018-05-31T02:39:00.460Z,173.60
2018-05-31T02:40:00.512Z,181.20
2018-05-31T02:41:00.544Z,189.60
2018-05-31T02:42:00.599Z,177.80
2018-05-31T02:43:00.635Z,174.90
2018-05-31T02:44:00.898Z,169.10
2018-05-31T02:45:00.727Z,167.80
2018-05-31T02:46:00.763Z,166.10
2018-05-31T02:47:00.799Z,165.80
2018-05-31T02:48:00.840Z,182.90
2018-05-31T02:49:01.000Z,142.50
2018-05-31T02:50:00.943Z,143.20
2018-05-31T02:51:00.980Z,143.60
2018-05-31T02:52:01.032Z,136.40
2018-05-31T02:53:01.077Z,123.00
2018-05-31T02:54:01.107Z,106.90
2018-05-31T02:55:01.358Z,108.60
2018-05-31T02:56:01.205Z,99.40
2018-05-31T02:57:01.244Z,95.20
2018-05-31T02:58:01.303Z,99.90
2018-05-31T02:59:01.323Z,97.50
2018-05-31T03:00:01.367Z,103.60
2018-05-31T03:01:01.518Z,106.50
2018-05-31T03:02:01.454Z,98.30
2018-05-31T03:03:01.507Z,90.00
2018-05-31T03:04:01.550Z,92.50
2018-05-31T03:05:01.597Z,101.50
2018-05-31T03:06:01.639Z,98.20
2018-05-31T03:07:01.682Z,104.90
2018-05-31T03:08:01.825Z,107.40
2018-05-31T03:09:01.767Z,101.20
2018-05-31T03:10:01.808Z,89.80
2018-05-31T03:11:01.861Z,91.60
2018-05-31T03:12:01.885Z,98.30
2018-05-31T03:13:02.148Z,93.90
2018-05-31T03:14:01.992Z,96.90
2018-05-31T03:15:02.012Z,103.20
2018-05-31T03:16:02.065Z,105.50
2018-05-31T03:17:02.120Z,104.60
2018-05-31T03:18:02.166Z,114.40
2018-05-31T03:19:02.189Z,120.50
2018-05-31T03:20:02.243Z,114.80
2018-05-31T03:21:02.280Z,124.60
2018-05-31T03:22:02.308Z,112.80
2018-05-31T03:23:02.448Z,109.00
2018-05-31T03:24:02.609Z,116.10
2018-05-31T03:25:02.453Z,118.40
2018-05-31T03:26:02.511Z,121.10
2018-05-31T03:27:02.550Z,127.30
2018-05-31T03:28:02.568Z,122.40
2018-05-31T03:29:02.614Z,132.90
2018-05-31T03:30:02.764Z,124.30
2018-05-31T03:31:02.714Z,128.40
2018-05-31T03:32:02.754Z,116.50
2018-05-31T03:33:02.796Z,122.10
2018-05-31T03:34:02.824Z,130.00
2018-05-31T03:35:02.968Z,132.50
2018-05-31T03:36:02.937Z,139.00
2018-05-31T03:37:02.971Z,146.30
2018-05-31T03:38:03.009Z,143.50
2018-05-31T03:39:03.054Z,146.10
2018-05-31T03:40:03.099Z,123.20
2018-05-31T03:41:03.328Z,127.40
2018-05-31T03:42:03.167Z,130.00
2018-05-31T03:43:03.208Z,126.00
2018-05-31T03:44:03.271Z,119.80
2018-05-31T03:45:03.300Z,123.50
2018-05-31T03:46:03.342Z,122.10
2018-05-31T03:47:03.479Z,125.70
2018-05-31T03:48:03.441Z,143.00
2018-05-31T03:49:03.477Z,168.20
2018-05-31T03:50:03.510Z,182.60
2018-05-31T03:51:03.572Z,206.90
2018-05-31T03:52:03.604Z,204.40
2018-05-31T03:53:03.752Z,195.90
2018-05-31T03:54:03.680Z,170.30
2018-05-31T03:55:03.738Z,154.60
2018-05-31T03:56:03.772Z,133.20
2018-05-31T03:57:03.815Z,127.90
2018-05-31T03:58:04.056Z,116.80
2018-05-31T03:59:03.908Z,110.40
2018-05-31T04:00:03.940Z,107.00
2018-05-31T04:01:04.001Z,91.80
2018-05-31T04:02:04.042Z,91.60
2018-05-31T04:03:04.067Z,100.80
2018-05-31T04:04:04.230Z,98.60
2018-05-31T04:05:04.176Z,90.80
2018-05-31T04:06:04.208Z,104.50
2018-05-31T04:07:04.259Z,100.70
2018-05-31T04:08:04.296Z,94.10
2018-05-31T04:09:04.329Z,95.40
2018-05-31T04:10:04.592Z,98.80
2018-05-31T04:11:04.434Z,84.20
2018-05-31T04:12:04.464Z,89.60
2018-05-31T04:13:04.551Z,98.80
2018-05-31T04:14:04.535Z,88.90
2018-05-31T04:15:04.700Z,91.10
2018-05-31T04:16:04.629Z,104.70
2018-05-31T04:17:04.690Z,108.60
2018-05-31T04:18:04.709Z,129.20
2018-05-31T04:19:04.776Z,186.80
2018-05-31T04:20:04.796Z,242.10
2018-05-31T04:21:05.035Z,358.70
2018-05-31T04:22:04.892Z,288.20
2018-05-31T04:23:04.921Z,266.20
2018-05-31T04:24:04.976Z,238.30
2018-05-31T04:25:05.005Z,242.30
2018-05-31T04:26:05.253Z,229.40
2018-05-31T04:27:05.202Z,200.90
2018-05-31T04:28:05.137Z,209.00
2018-05-31T04:29:05.174Z,185.10
2018-05-31T04:30:05.235Z,161.70
2018-05-31T04:31:05.303Z,170.60
2018-05-31T04:32:05.318Z,185.80
2018-05-31T04:33:05.579Z,181.10
2018-05-31T04:34:05.389Z,196.00
2018-05-31T04:35:05.440Z,167.30
2018-05-31T04:36:05.488Z,178.70
2018-05-31T04:37:05.533Z,165.50
2018-05-31T04:38:05.575Z,165.30
2018-05-31T04:39:05.705Z,190.30
2018-05-31T04:40:05.654Z,186.50
2018-05-31T04:41:05.700Z,198.50
2018-05-31T04:42:05.739Z,251.40
2018-05-31T04:43:05.791Z,263.50
2018-05-31T04:44:05.814Z,249.90
2018-05-31T04:45:05.858Z,244.90
2018-05-31T04:46:06.012Z,263.50
2018-05-31T04:47:05.952Z,238.90
2018-05-31T04:48:05.983Z,207.90
2018-05-31T04:49:06.045Z,237.70
2018-05-31T04:50:06.091Z,237.80
2018-05-31T04:51:06.319Z,228.70
2018-05-31T04:52:06.157Z,218.60
2018-05-31T04:53:06.194Z,226.50
2018-05-31T04:54:06.249Z,216.00
2018-05-31T04:55:06.276Z,232.40
2018-05-31T04:56:06.334Z,213.70
2018-05-31T04:57:06.494Z,215.70
2018-05-31T04:58:06.439Z,208.90
2018-05-31T04:59:06.446Z,210.90
2018-05-31T05:00:06.515Z,215.30
2018-05-31T05:01:06.538Z,194.80
2018-05-31T05:02:06.605Z,186.90
2018-05-31T05:03:06.815Z,185.20
2018-05-31T05:04:06.674Z,185.40
2018-05-31T05:05:06.707Z,184.10
2018-05-31T05:06:06.761Z,173.80
2018-05-31T05:07:06.791Z,164.20
2018-05-31T05:08:06.842Z,173.70
2018-05-31T05:09:06.876Z,165.00
2018-05-31T05:10:06.942Z,167.10
2018-05-31T05:11:06.956Z,157.00
2018-05-31T05:12:07.003Z,159.00
2018-05-31T05:13:07.142Z,161.50
2018-05-31T05:14:07.100Z,170.90
2018-05-31T05:15:07.145Z,164.50
2018-05-31T05:16:07.196Z,164.60
2018-05-31T05:17:07.225Z,165.80
2018-05-31T05:18:07.469Z,162.40
2018-05-31T05:19:07.318Z,166.30
2018-05-31T05:20:07.360Z,164.70
2018-05-31T05:21:07.398Z,167.20
2018-05-31T05:22:07.429Z,154.00
2018-05-31T05:23:07.461Z,171.10
2018-05-31T05:24:07.531Z,168.00
2018-05-31T05:25:07.565Z,164.30
2018-05-31T05:26:07.609Z,153.70
2018-05-31T05:27:07.640Z,155.20
2018-05-31T05:28:07.777Z,154.30
2018-05-31T05:29:07.925Z,152.70
2018-05-31T05:30:07.793Z,162.00
2018-05-31T05:31:07.801Z,146.30
2018-05-31T05:32:07.868Z,154.10
2018-05-31T05:33:07.928Z,148.70
2018-05-31T05:34:07.939Z,161.00
2018-05-31T05:35:08.069Z,179.40
2018-05-31T05:36:08.017Z,201.90
2018-05-31T05:37:08.065Z,185.80
2018-05-31T05:38:08.101Z,161.00
2018-05-31T05:39:08.157Z,151.20
2018-05-31T05:40:08.297Z,151.80
2018-05-31T05:41:08.243Z,157.90
2018-05-31T05:42:08.273Z,161.20
2018-05-31T05:43:08.309Z,166.60
2018-05-31T05:44:08.365Z,172.90
2018-05-31T05:45:08.612Z,176.80
2018-05-31T05:46:08.447Z,186.60
2018-05-31T05:47:08.492Z,191.60
2018-05-31T05:48:08.537Z,180.40
2018-05-31T05:49:08.562Z,148.40
2018-05-31T05:50:08.672Z,151.30
2018-05-31T05:51:08.674Z,173.00
2018-05-31T05:52:08.695Z,167.00
2018-05-31T05:53:08.749Z,164.70
2018-05-31T05:54:08.790Z,178.70
2018-05-31T05:55:08.922Z,170.60
2018-05-31T05:56:08.855Z,139.90
2018-05-31T05:57:08.901Z,147.20
2018-05-31T05:58:08.957Z,142.20
2018-05-31T05:59:09.011Z,160.80
2018-05-31T06:00:09.232Z,148.20
2018-05-31T06:01:09.069Z,143.30
2018-05-31T06:02:09.109Z,146.00
2018-05-31T06:03:09.169Z,149.70
2018-05-31T06:04:09.243Z,137.60
2018-05-31T06:05:09.247Z,135.90
2018-05-31T06:06:09.383Z,138.80
2018-05-31T06:07:09.336Z,139.50
2018-05-31T06:08:09.379Z,122.90
2018-05-31T06:09:09.418Z,103.50
2018-05-31T06:10:09.592Z,109.80
2018-05-31T06:11:09.696Z,91.20
2018-05-31T06:12:09.529Z,79.50
2018-05-31T06:13:09.597Z,85.30
2018-05-31T06:14:09.627Z,81.80
2018-05-31T06:15:09.664Z,76.90
2018-05-31T06:16:09.699Z,82.90
2018-05-31T06:17:09.843Z,81.20
2018-05-31T06:18:09.779Z,88.80
2018-05-31T06:19:09.823Z,87.30
2018-05-31T06:20:09.869Z,85.20
2018-05-31T06:21:09.921Z,80.30
2018-05-31T06:22:09.951Z,84.60
2018-05-31T06:23:09.997Z,87.20
2018-05-31T06:24:10.034Z,82.80
2018-05-31T06:25:10.075Z,90.10
2018-05-31T06:26:10.131Z,90.10
2018-05-31T06:27:10.355Z,91.40
2018-05-31T06:28:10.211Z,90.30
2018-05-31T06:29:10.261Z,91.90
2018-05-31T06:30:10.302Z,97.30
2018-05-31T06:31:10.331Z,102.30
2018-05-31T06:32:10.486Z,110.90
2018-05-31T06:33:10.426Z,100.80
2018-05-31T06:34:10.475Z,102.00
2018-05-31T06:35:10.490Z,103.90
2018-05-31T06:36:10.534Z,102.80
2018-05-31T06:37:10.626Z,104.10
2018-05-31T06:38:10.625Z,99.30
2018-05-31T06:39:10.656Z,97.70
2018-05-31T06:40:10.705Z,97.40
2018-05-31T06:41:10.740Z,97.00
2018-05-31T06:42:10.998Z,102.30
2018-05-31T06:43:10.825Z,104.20
2018-05-31T06:44:10.866Z,96.50
2018-05-31T06:45:10.929Z,121.40
2018-05-31T06:46:10.968Z,114.60
2018-05-31T06:47:11.110Z,100.30
2018-05-31T06:48:11.031Z,100.90
2018-05-31T06:49:11.092Z,101.60
2018-05-31T06:50:11.121Z,103.80
2018-05-31T06:51:11.164Z,93.60
2018-05-31T06:52:11.202Z,102.00
2018-05-31T06:53:11.447Z,116.80
2018-05-31T06:54:11.307Z,114.60
2018-05-31T06:55:11.348Z,95.50
2018-05-31T06:56:11.385Z,116.40
2018-05-31T06:57:11.426Z,117.80
2018-05-31T06:58:11.473Z,128.00
2018-05-31T06:59:11.594Z,136.40
2018-05-31T07:00:11.552Z,138.50
2018-05-31T07:01:11.599Z,155.80
2018-05-31T07:02:11.642Z,143.10
2018-05-31T07:03:11.666Z,143.50
2018-05-31T07:04:11.700Z,163.30
2018-05-31T07:05:11.963Z,171.90
2018-05-31T07:06:11.802Z,156.20
2018-05-31T07:07:11.833Z,157.20
2018-05-31T07:08:11.871Z,165.40
2018-05-31T07:09:11.914Z,169.50
2018-05-31T07:10:11.952Z,200.50
2018-05-31T07:11:12.115Z,203.90
2018-05-31T07:12:12.038Z,224.30
2018-05-31T07:13:12.085Z,246.80
2018-05-31T07:14:12.132Z,238.00
2018-05-31T07:15:12.162Z,251.30
2018-05-31T07:16:12.203Z,274.90
2018-05-31T07:17:12.449Z,261.90
2018-05-31T07:18:12.291Z,274.80
2018-05-31T07:19:12.347Z,272.20
2018-05-31T07:20:12.391Z,278.50
2018-05-31T07:21:12.429Z,271.70
2018-05-31T07:22:12.480Z,270.60
2018-05-31T07:23:12.620Z,271.30
2018-05-31T07:24:12.561Z,284.00
2018-05-31T07:25:12.580Z,266.00
2018-05-31T07:26:12.616Z,277.00
2018-05-31T07:27:12.684Z,254.60
2018-05-31T07:28:12.724Z,249.50
2018-05-31T07:29:12.958Z,251.20
2018-05-31T07:30:12.801Z,273.20
2018-05-31T07:31:12.843Z,241.60
2018-05-31T07:32:12.869Z,248.90
2018-05-31T07:33:12.924Z,248.20
2018-05-31T07:34:12.968Z,251.10
2018-05-31T07:35:13.015Z,260.90
2018-05-31T07:36:13.076Z,236.40
2018-05-31T07:37:13.094Z,235.40
2018-05-31T07:38:13.134Z,232.70
2018-05-31T07:39:13.369Z,235.10
2018-05-31T07:40:13.216Z,233.80
2018-05-31T07:41:13.247Z,220.00
2018-05-31T07:42:13.301Z,234.90
2018-05-31T07:43:13.329Z,229.50
2018-05-31T07:44:13.668Z,236.10
2018-05-31T07:45:13.427Z,219.90
2018-05-31T07:46:13.452Z,223.80
2018-05-31T07:47:13.496Z,222.10
2018-05-31T07:48:13.545Z,219.80
2018-05-31T07:49:13.680Z,219.20
2018-05-31T07:50:13.821Z,220.60
2018-05-31T07:51:13.667Z,206.90
2018-05-31T07:52:13.711Z,215.80
2018-05-31T07:53:13.760Z,222.30
2018-05-31T07:54:13.788Z,226.50
2018-05-31T07:55:13.820Z,220.30
2018-05-31T07:56:13.990Z,214.60
2018-05-31T07:57:13.906Z,207.80
2018-05-31T07:58:13.967Z,212.10
2018-05-31T07:59:14.010Z,218.10
2018-05-31T08:00:14.053Z,207.60
2018-05-31T08:01:14.293Z,222.20
2018-05-31T08:02:14.144Z,219.30
2018-05-31T08:03:14.188Z,211.70
2018-05-31T08:04:14.219Z,206.60
2018-05-31T08:05:14.240Z,209.20
2018-05-31T08:06:14.294Z,204.90
2018-05-31T08:07:14.422Z,213.70
2018-05-31T08:08:14.382Z,211.60
2018-05-31T08:09:14.426Z,214.50
2018-05-31T08:10:14.453Z,211.50
2018-05-31T08:11:14.538Z,209.80
2018-05-31T08:12:14.542Z,220.80
2018-05-31T08:13:14.570Z,206.70
2018-05-31T08:14:14.634Z,181.20
2018-05-31T08:15:14.679Z,170.00
2018-05-31T08:16:14.705Z,174.60
2018-05-31T08:17:14.953Z,188.10
2018-05-31T08:18:14.791Z,151.00
2018-05-31T08:19:14.843Z,147.60
2018-05-31T08:20:14.876Z,142.40
2018-05-31T08:21:14.923Z,162.20
2018-05-31T08:22:15.062Z,147.20
2018-05-31T08:23:15.001Z,145.10
2018-05-31T08:24:15.028Z,145.70
2018-05-31T08:25:15.068Z,139.10
2018-05-31T08:26:15.128Z,141.90
2018-05-31T08:27:15.163Z,145.00
2018-05-31T08:28:15.412Z,132.70
2018-05-31T08:29:15.252Z,136.80
2018-05-31T08:30:15.287Z,133.80
2018-05-31T08:31:15.330Z,130.70
2018-05-31T08:32:15.358Z,143.80
2018-05-31T08:33:15.413Z,141.80
2018-05-31T08:34:15.553Z,139.30
2018-05-31T08:35:15.488Z,160.70
2018-05-31T08:36:15.528Z,157.80
2018-05-31T08:37:15.591Z,147.90
2018-05-31T08:38:15.620Z,165.20
2018-05-31T08:39:15.671Z,167.60
2018-05-31T08:40:15.893Z,166.50
2018-05-31T08:41:15.745Z,182.00
2018-05-31T08:42:15.778Z,188.10
2018-05-31T08:43:15.824Z,196.40
2018-05-31T08:44:15.859Z,203.70
2018-05-31T08:45:16.018Z,191.20
2018-05-31T08:46:15.943Z,229.80
2018-05-31T08:47:16.004Z,193.30
2018-05-31T08:48:16.044Z,192.90
2018-05-31T08:49:16.075Z,221.00
2018-05-31T08:50:16.102Z,233.50
2018-05-31T08:51:16.370Z,259.50
2018-05-31T08:52:16.211Z,216.60
2018-05-31T08:53:16.234Z,208.90
2018-05-31T08:54:16.289Z,211.50
2018-05-31T08:55:16.322Z,206.90
2018-05-31T08:56:16.351Z,196.10
2018-05-31T08:57:16.408Z,219.80
2018-05-31T08:58:16.433Z,211.00
2018-05-31T08:59:16.508Z,232.30
2018-05-31T09:00:16.532Z,237.80
2018-05-31T09:01:16.670Z,242.40
2018-05-31T09:02:16.615Z,250.10
2018-05-31T09:03:16.655Z,244.00
2018-05-31T09:04:16.700Z,233.20
2018-05-31T09:05:16.740Z,204.00
2018-05-31T09:06:16.983Z,207.30
2018-05-31T09:07:16.821Z,234.80
2018-05-31T09:08:16.859Z,237.50
2018-05-31T09:09:16.915Z,220.50
2018-05-31T09:10:16.949Z,226.80
2018-05-31T09:11:16.980Z,221.50
2018-05-31T09:12:17.115Z,220.80
2018-05-31T09:13:17.076Z,208.40
2018-05-31T09:14:17.117Z,244.00
2018-05-31T09:15:17.145Z,245.60
2018-05-31T09:16:17.176Z,243.90
2018-05-31T09:17:17.244Z,250.90
2018-05-31T09:18:17.273Z,243.70
2018-05-31T09:19:17.329Z,249.80
2018-05-31T09:20:17.365Z,239.90
2018-05-31T09:21:17.409Z,251.00
2018-05-31T09:22:17.629Z,246.10
2018-05-31T09:23:17.490Z,265.50
2018-05-31T09:24:17.517Z,238.50
2018-05-31T09:25:17.574Z,249.90
2018-05-31T09:26:17.620Z,242.30
2018-05-31T09:27:17.737Z,239.90
2018-05-31T09:28:17.681Z,240.70
2018-05-31T09:29:17.739Z,226.50
2018-05-31T09:30:17.763Z,253.20
2018-05-31T09:31:17.804Z,235.80
2018-05-31T09:32:17.869Z,240.10
2018-05-31T09:33:18.007Z,235.50
2018-05-31T09:34:17.924Z,248.90
2018-05-31T09:35:17.992Z,226.90
2018-05-31T09:36:18.020Z,255.30
2018-05-31T09:37:18.061Z,254.00
2018-05-31T09:38:18.099Z,248.20
2018-05-31T09:39:18.234Z,250.10
2018-05-31T09:40:18.174Z,234.40
2018-05-31T09:41:18.227Z,240.20
2018-05-31T09:42:18.262Z,257.60
2018-05-31T09:43:18.311Z,263.80
2018-05-31T09:44:18.350Z,250.60
2018-05-31T09:45:18.583Z,268.90
2018-05-31T09:46:18.433Z,265.20
2018-05-31T09:47:18.461Z,260.30
2018-05-31T09:48:18.527Z,263.30
2018-05-31T09:49:18.555Z,259.30
2018-05-31T09:50:18.596Z,273.30
2018-05-31T09:51:18.634Z,259.70
2018-05-31T09:52:18.662Z,261.30
2018-05-31T09:53:18.724Z,281.30
2018-05-31T09:54:18.750Z,282.70
2018-05-31T09:55:18.900Z,261.30
2018-05-31T09:56:19.047Z,254.30
2018-05-31T09:57:18.871Z,237.90
2018-05-31T09:58:18.920Z,262.20
2018-05-31T09:59:18.975Z,244.80
2018-05-31T10:00:19.013Z,265.30
2018-05-31T10:01:19.048Z,276.10
2018-05-31T10:02:19.178Z,306.40
2018-05-31T10:03:19.141Z,307.60
2018-05-31T10:04:19.189Z,294.00
2018-05-31T10:05:19.214Z,314.00
2018-05-31T10:06:19.261Z,285.20
2018-05-31T10:07:19.481Z,324.40
2018-05-31T10:08:19.338Z,305.20
2018-05-31T10:09:19.392Z,264.80
2018-05-31T10:10:19.409Z,310.80
2018-05-31T10:11:19.468Z,246.30
2018-05-31T10:12:19.507Z,224.70
2018-05-31T10:13:19.648Z,239.60
2018-05-31T10:14:19.589Z,232.70
2018-05-31T10:15:19.628Z,268.30
2018-05-31T10:16:19.666Z,277.70
2018-05-31T10:17:19.704Z,245.60
2018-05-31T10:18:19.756Z,270.90
2018-05-31T10:19:19.774Z,249.70
2018-05-31T10:20:19.832Z,261.20
2018-05-31T10:21:19.860Z,271.70
2018-05-31T10:22:19.916Z,230.50
2018-05-31T10:23:20.159Z,264.30
2018-05-31T10:24:19.979Z,215.90
2018-05-31T10:25:20.025Z,216.20
2018-05-31T10:26:20.080Z,209.50
2018-05-31T10:27:20.151Z,205.30
2018-05-31T10:28:20.255Z,189.60
2018-05-31T10:29:20.193Z,179.20
2018-05-31T10:30:20.239Z,172.30
2018-05-31T10:31:20.277Z,163.20
2018-05-31T10:32:20.323Z,165.30
2018-05-31T10:33:20.351Z,166.10
2018-05-31T10:34:20.389Z,160.30
2018-05-31T10:35:20.447Z,130.10
2018-05-31T10:36:20.495Z,115.20
2018-05-31T10:37:20.520Z,109.90
2018-05-31T10:38:20.772Z,113.80
2018-05-31T10:39:20.707Z,134.00
2018-05-31T10:40:20.664Z,161.60
2018-05-31T10:41:20.694Z,170.00
2018-05-31T10:42:20.728Z,170.20
2018-05-31T10:43:20.777Z,186.80
2018-05-31T10:44:20.839Z,197.50
2018-05-31T10:45:21.067Z,203.80
2018-05-31T10:46:20.918Z,201.30
2018-05-31T10:47:20.964Z,220.00
2018-05-31T10:48:21.002Z,227.60
2018-05-31T10:49:21.054Z,242.30
2018-05-31T10:50:21.197Z,260.70
2018-05-31T10:51:21.139Z,250.00
2018-05-31T10:52:21.184Z,254.50
2018-05-31T10:53:21.241Z,260.90
2018-05-31T10:54:21.263Z,261.10
2018-05-31T10:55:21.307Z,264.20
2018-05-31T10:56:21.366Z,328.30
2018-05-31T10:57:21.435Z,255.40
2018-05-31T10:58:21.445Z,272.10
2018-05-31T10:59:21.568Z,280.20
2018-05-31T11:00:21.656Z,251.20
2018-05-31T11:01:21.593Z,271.90
2018-05-31T11:02:21.647Z,262.50
2018-05-31T11:03:21.678Z,255.10
2018-05-31T11:04:21.744Z,258.10
2018-05-31T11:05:21.789Z,256.40
2018-05-31T11:06:21.835Z,276.60
2018-05-31T11:07:21.881Z,268.10
2018-05-31T11:08:21.922Z,261.30
2018-05-31T11:09:21.969Z,279.50
2018-05-31T11:10:22.129Z,302.90
2018-05-31T11:11:22.067Z,284.00
2018-05-31T11:12:22.123Z,280.00
2018-05-31T11:13:22.159Z,242.10
2018-05-31T11:14:22.225Z,231.70
2018-05-31T11:15:22.281Z,259.50
2018-05-31T11:16:22.309Z,272.20
2018-05-31T11:17:22.368Z,269.80
2018-05-31T11:18:22.420Z,285.60
2018-05-31T11:19:22.474Z,303.00
2018-05-31T11:20:22.622Z,309.60
2018-05-31T11:21:22.549Z,301.60
2018-05-31T11:22:22.618Z,314.70
2018-05-31T11:23:22.659Z,301.70
2018-05-31T11:24:22.709Z,293.20
2018-05-31T11:25:22.761Z,333.80
2018-05-31T11:26:22.820Z,300.50
2018-05-31T11:27:22.949Z,298.90
2018-05-31T11:28:22.909Z,291.50
2018-05-31T11:29:22.967Z,289.40
2018-05-31T11:30:22.992Z,319.40
2018-05-31T11:31:23.059Z,285.80
2018-05-31T11:32:23.410Z,340.70
2018-05-31T11:33:23.164Z,315.80
2018-05-31T11:34:23.202Z,416.90
2018-05-31T11:35:23.257Z,345.50
2018-05-31T11:36:23.290Z,385.50
2018-05-31T11:37:23.348Z,338.20
2018-05-31T11:38:23.512Z,290.20
2018-05-31T11:39:23.460Z,274.30
2018-05-31T11:40:23.496Z,276.20
2018-05-31T11:41:23.551Z,269.10
2018-05-31T11:42:23.607Z,251.60
2018-05-31T11:43:23.838Z,270.90
2018-05-31T11:44:23.710Z,330.20
2018-05-31T11:45:23.754Z,402.20
2018-05-31T11:46:23.814Z,286.70
2018-05-31T11:47:23.863Z,268.20
2018-05-31T11:48:23.890Z,281.90
2018-05-31T11:49:23.967Z,269.70
2018-05-31T11:50:24.010Z,272.20
2018-05-31T11:51:24.058Z,306.90
2018-05-31T11:52:24.112Z,278.00
2018-05-31T11:53:24.242Z,258.70
2018-05-31T11:54:24.220Z,300.80
2018-05-31T11:55:24.247Z,287.50
2018-05-31T11:56:24.299Z,275.40
2018-05-31T11:57:24.362Z,243.60
2018-05-31T11:58:24.402Z,291.30
2018-05-31T11:59:24.475Z,269.80
2018-05-31T12:00:24.648Z,258.00
2018-05-31T12:01:24.550Z,298.10
2018-05-31T12:02:24.600Z,293.00
2018-05-31T12:03:24.673Z,270.20
2018-05-31T12:04:24.721Z,275.10
2018-05-31T12:05:24.954Z,256.80
2018-05-31T12:06:24.848Z,245.80
2018-05-31T12:07:24.859Z,278.20
2018-05-31T12:08:24.928Z,245.90
2018-05-31T12:09:24.972Z,270.00
2018-05-31T12:10:25.027Z,257.30
2018-05-31T12:11:25.433Z,272.90
2018-05-31T12:12:25.130Z,275.50
2018-05-31T12:13:25.192Z,240.90
2018-05-31T12:14:25.232Z,249.80
2018-05-31T12:15:25.286Z,275.00
2018-05-31T12:16:25.330Z,334.60
2018-05-31T12:17:25.607Z,260.00
2018-05-31T12:18:25.446Z,272.60
2018-05-31T12:19:25.517Z,276.80
2018-05-31T12:20:25.539Z,244.20
2018-05-31T12:21:25.599Z,243.60
2018-05-31T12:22:25.851Z,262.90
2018-05-31T12:23:25.700Z,271.10
2018-05-31T12:24:25.751Z,292.80
2018-05-31T12:25:25.806Z,267.60
2018-05-31T12:26:25.857Z,220.90
2018-05-31T12:27:25.908Z,212.40
2018-05-31T12:28:26.059Z,220.20
2018-05-31T12:29:26.005Z,218.60
2018-05-31T12:30:26.060Z,194.90
2018-05-31T12:31:26.127Z,193.10